createdAt,value
2018-09-09T00:01:15.236Z,4.78
2018-09-09T00:03:43.472Z,5.78
2018-09-09T00:06:11.736Z,7.50
2018-09-09T00:08:39.984Z,5.80
2018-09-09T00:11:08.271Z,4.87
2018-09-09T00:13:36.527Z,6.42
2018-09-09T00:16:05.234Z,8.13
2018-09-09T00:18:33.475Z,8.73
2018-09-09T00:21:01.677Z,8.50
2018-09-09T00:23:29.904Z,6.87
2018-09-09T00:25:58.156Z,7.62
2018-09-09T00:28:26.421Z,7.92
2018-09-09T00:30:54.668Z,7.45
2018-09-09T00:33:22.943Z,5.70
2018-09-09T00:35:51.196Z,7.72
2018-09-09T00:38:19.449Z,7.80
2018-09-09T00:40:47.720Z,5.78
2018-09-09T00:43:15.938Z,8.03
2018-09-09T00:45:44.163Z,7.30
2018-09-09T00:48:12.381Z,6.62
2018-09-09T00:50:45.981Z,5.28
2018-09-09T00:53:19.577Z,7.05
2018-09-09T00:55:47.787Z,6.08
2018-09-09T00:58:16.252Z,7.40
2018-09-09T01:00:49.746Z,8.37
2018-09-09T01:03:17.967Z,7.62
2018-09-09T01:05:46.175Z,8.33
2018-09-09T01:08:14.412Z,6.67
2018-09-09T01:10:42.633Z,7.25
2018-09-09T01:13:10.859Z,5.80
2018-09-09T01:15:39.116Z,8.63
2018-09-09T01:18:07.368Z,6.77
2018-09-09T01:20:35.581Z,7.90
2018-09-09T01:23:03.791Z,7.72
2018-09-09T01:25:32.052Z,6.05
2018-09-09T01:28:00.319Z,8.10
2018-09-09T01:30:29.470Z,9.60
2018-09-09T01:32:57.683Z,7.50
2018-09-09T01:35:25.927Z,6.58
2018-09-09T01:37:54.195Z,8.23
2018-09-09T01:40:22.423Z,8.97
2018-09-09T01:42:50.620Z,5.80
2018-09-09T01:45:18.859Z,6.83
2018-09-09T01:47:47.111Z,8.13
2018-09-09T01:50:15.359Z,7.33
2018-09-09T01:52:43.593Z,7.60
2018-09-09T01:55:11.820Z,7.15
2018-09-09T01:57:40.044Z,8.50
2018-09-09T02:00:08.328Z,9.83
2018-09-09T02:02:36.615Z,8.05
2018-09-09T02:05:04.831Z,7.80
2018-09-09T02:07:33.083Z,9.45
2018-09-09T02:10:01.303Z,7.53
2018-09-09T02:12:29.559Z,8.08
2018-09-09T02:14:57.804Z,7.33
2018-09-09T02:17:26.043Z,10.05
2018-09-09T02:19:54.288Z,8.63
2018-09-09T02:22:22.545Z,8.90
2018-09-09T02:24:50.753Z,7.97
2018-09-09T02:27:19.002Z,10.25
2018-09-09T02:29:47.252Z,9.33
2018-09-09T02:32:15.469Z,9.23
2018-09-09T02:34:43.685Z,8.45
2018-09-09T02:37:11.953Z,10.35
2018-09-09T02:39:40.265Z,9.20
2018-09-09T02:42:08.534Z,9.50
2018-09-09T02:44:37.000Z,8.50
2018-09-09T02:47:05.228Z,9.67
2018-09-09T02:49:33.572Z,9.90
2018-09-09T02:52:01.784Z,12.47
2018-09-09T02:54:30.008Z,8.98
2018-09-09T02:56:58.227Z,9.35
2018-09-09T02:59:26.435Z,9.33
2018-09-09T03:01:54.649Z,9.33
2018-09-09T03:04:22.845Z,9.08
2018-09-09T03:06:51.071Z,9.30
2018-09-09T03:09:19.303Z,9.28
2018-09-09T03:11:47.511Z,10.58
2018-09-09T03:14:16.667Z,9.80
2018-09-09T03:16:44.898Z,10.90
2018-09-09T03:19:13.101Z,9.00
2018-09-09T03:21:41.369Z,13.18
2018-09-09T03:24:09.615Z,10.15
2018-09-09T03:26:37.841Z,10.60
2018-09-09T03:29:06.074Z,10.88
2018-09-09T03:31:34.324Z,10.90
2018-09-09T03:34:02.552Z,10.60
2018-09-09T03:36:30.803Z,13.03
2018-09-09T03:38:59.032Z,11.93
2018-09-09T03:41:27.268Z,11.48
2018-09-09T03:43:55.542Z,11.90
2018-09-09T03:46:23.750Z,10.80
2018-09-09T03:48:51.996Z,11.43
2018-09-09T03:51:20.234Z,11.57
2018-09-09T03:53:48.456Z,12.85
2018-09-09T03:56:16.696Z,12.20
2018-09-09T03:58:44.984Z,13.37
2018-09-09T04:01:13.223Z,13.55
2018-09-09T04:03:41.470Z,12.27
2018-09-09T04:06:09.765Z,11.33
2018-09-09T04:08:38.017Z,11.93
2018-09-09T04:11:08.861Z,11.90
2018-09-09T04:13:38.044Z,14.00
2018-09-09T04:16:06.413Z,10.90
2018-09-09T04:18:34.765Z,12.37
2018-09-09T04:21:02.988Z,11.25
2018-09-09T04:23:31.233Z,13.33
2018-09-09T04:25:59.431Z,11.50
2018-09-09T04:28:27.643Z,11.40
2018-09-09T04:30:55.939Z,11.73
2018-09-09T04:33:24.136Z,10.65
2018-09-09T04:35:52.393Z,10.80
2018-09-09T04:38:20.695Z,10.97
2018-09-09T04:40:48.932Z,10.83
2018-09-09T04:43:17.163Z,9.63
2018-09-09T04:45:45.520Z,10.07
2018-09-09T04:48:13.784Z,11.13
2018-09-09T04:50:42.117Z,10.33
2018-09-09T04:53:10.406Z,9.90
2018-09-09T04:55:38.889Z,9.83
2018-09-09T04:58:07.219Z,11.08
2018-09-09T05:00:36.157Z,11.08
2018-09-09T05:03:04.389Z,11.28
2018-09-09T05:05:32.643Z,10.87
2018-09-09T05:08:00.856Z,9.87
2018-09-09T05:10:29.088Z,11.48
2018-09-09T05:12:57.355Z,11.97
2018-09-09T05:15:25.582Z,12.43
2018-09-09T05:17:53.825Z,13.55
2018-09-09T05:20:22.083Z,11.53
2018-09-09T05:22:50.294Z,11.75
2018-09-09T05:25:18.520Z,11.90
2018-09-09T05:27:46.763Z,11.78
2018-09-09T05:30:14.957Z,12.97
2018-09-09T05:32:43.157Z,11.65
2018-09-09T05:35:11.427Z,11.60
2018-09-09T05:37:39.696Z,12.03
2018-09-09T05:40:07.955Z,11.40
2018-09-09T05:42:36.206Z,12.65
2018-09-09T05:45:04.660Z,12.10
2018-09-09T05:47:32.879Z,11.30
2018-09-09T05:50:01.133Z,12.23
2018-09-09T05:52:29.375Z,10.30
2018-09-09T05:54:57.589Z,10.82
2018-09-09T05:57:25.840Z,11.17
2018-09-09T05:59:54.063Z,9.70
2018-09-09T06:02:22.324Z,10.45
2018-09-09T06:04:50.561Z,9.88
2018-09-09T06:07:18.805Z,9.63
2018-09-09T06:09:47.045Z,11.60
2018-09-09T06:12:15.260Z,9.08
2018-09-09T06:14:43.516Z,9.90
2018-09-09T06:17:11.796Z,11.03
2018-09-09T06:19:40.071Z,9.20
2018-09-09T06:22:08.358Z,8.75
2018-09-09T06:24:36.633Z,9.43
2018-09-09T06:27:05.476Z,7.90
2018-09-09T06:29:33.764Z,9.23
2018-09-09T06:32:02.027Z,7.92
2018-09-09T06:34:30.304Z,8.48
2018-09-09T06:36:58.523Z,8.38
2018-09-09T06:39:26.738Z,7.83
2018-09-09T06:41:54.932Z,8.00
2018-09-09T06:44:23.293Z,7.72
2018-09-09T06:46:51.593Z,7.30
2018-09-09T06:49:20.328Z,9.88
2018-09-09T06:51:48.684Z,8.08
2018-09-09T06:54:16.897Z,7.72
2018-09-09T06:56:45.100Z,7.80
2018-09-09T06:59:13.321Z,8.15
2018-09-09T07:01:41.544Z,8.08
2018-09-09T07:04:09.748Z,7.35
2018-09-09T07:06:38.028Z,8.17
2018-09-09T07:09:07.474Z,6.97
2018-09-09T07:11:35.896Z,8.00
2018-09-09T07:14:04.162Z,10.08
2018-09-09T07:16:32.441Z,7.60
2018-09-09T07:19:01.013Z,8.35
2018-09-09T07:21:29.380Z,7.83
2018-09-09T07:23:57.772Z,8.40
2018-09-09T07:26:26.224Z,8.98
2018-09-09T07:28:54.480Z,8.78
2018-09-09T07:31:22.700Z,8.40
2018-09-09T07:33:50.936Z,8.88
2018-09-09T07:36:19.162Z,8.35
2018-09-09T07:38:47.380Z,9.23
2018-09-09T07:41:15.620Z,8.50
2018-09-09T07:43:43.888Z,8.00
2018-09-09T07:46:12.155Z,8.43
2018-09-09T07:48:40.395Z,9.48
2018-09-09T07:51:08.640Z,8.13
2018-09-09T07:53:36.927Z,8.73
2018-09-09T07:56:05.675Z,9.00
2018-09-09T07:58:34.007Z,10.20
2018-09-09T08:01:02.248Z,8.20
2018-09-09T08:03:30.509Z,9.63
2018-09-09T08:05:58.769Z,9.60
2018-09-09T08:08:27.013Z,8.53
2018-09-09T08:10:55.266Z,8.75
2018-09-09T08:13:23.568Z,8.95
2018-09-09T08:15:51.812Z,9.73
2018-09-09T08:18:20.072Z,8.28
2018-09-09T08:20:48.365Z,8.85
2018-09-09T08:23:16.639Z,8.60
2018-09-09T08:25:44.845Z,7.92
2018-09-09T08:28:13.056Z,8.70
2018-09-09T08:30:41.346Z,9.90
2018-09-09T08:33:09.731Z,8.60
2018-09-09T08:35:37.995Z,9.73
2018-09-09T08:38:06.370Z,7.90
2018-09-09T08:40:34.593Z,8.58
2018-09-09T08:43:02.869Z,7.90
2018-09-09T08:45:32.152Z,9.33
2018-09-09T08:48:00.398Z,7.75
2018-09-09T08:50:28.625Z,8.58
2018-09-09T08:52:57.119Z,8.60
2018-09-09T08:55:25.557Z,11.48
2018-09-09T08:57:53.851Z,8.10
2018-09-09T09:00:22.364Z,9.38
2018-09-09T09:02:50.615Z,8.85
2018-09-09T09:05:18.886Z,8.75
2018-09-09T09:07:47.170Z,7.80
2018-09-09T09:10:15.433Z,8.08
2018-09-09T09:12:43.737Z,7.37
2018-09-09T09:15:12.011Z,8.55
2018-09-09T09:17:40.295Z,9.45
2018-09-09T09:20:08.589Z,9.30
2018-09-09T09:22:37.864Z,10.20
2018-09-09T09:25:06.142Z,9.60
2018-09-09T09:27:34.404Z,12.35
2018-09-09T09:30:02.672Z,7.62
2018-09-09T09:32:32.241Z,8.50
2018-09-09T09:35:00.496Z,10.80
2018-09-09T09:37:28.803Z,7.92
2018-09-09T09:39:57.063Z,7.22
2018-09-09T09:42:25.655Z,7.50
2018-09-09T09:44:54.059Z,10.65
2018-09-09T09:47:22.297Z,7.95
2018-09-09T09:49:50.701Z,5.97
2018-09-09T09:52:19.073Z,7.28
2018-09-09T09:54:47.332Z,7.45
2018-09-09T09:57:15.614Z,9.60
2018-09-09T09:59:43.877Z,6.72
2018-09-09T10:02:12.221Z,6.53
2018-09-09T10:04:40.467Z,7.97
2018-09-09T10:07:08.729Z,8.43
2018-09-09T10:09:37.025Z,10.80
2018-09-09T10:12:05.345Z,5.85
2018-09-09T10:14:33.722Z,8.65
2018-09-09T10:17:02.160Z,7.78
2018-09-09T10:19:30.446Z,6.05
2018-09-09T10:21:58.716Z,7.80
2018-09-09T10:24:26.990Z,6.95
2018-09-09T10:26:55.352Z,8.38
2018-09-09T10:29:23.743Z,7.47
2018-09-09T10:31:52.045Z,6.03
2018-09-09T10:34:20.943Z,10.25
2018-09-09T10:36:49.264Z,9.25
2018-09-09T10:39:18.463Z,10.88
2018-09-09T10:41:46.753Z,14.33
2018-09-09T10:44:15.592Z,9.30
2018-09-09T10:46:44.566Z,9.75
2018-09-09T10:49:12.863Z,8.43
2018-09-09T10:51:41.178Z,7.37
2018-09-09T10:54:09.433Z,11.05
2018-09-09T10:56:37.758Z,10.03
2018-09-09T10:59:06.131Z,8.10
2018-09-09T11:01:34.386Z,8.43
2018-09-09T11:04:02.643Z,8.43
2018-09-09T11:06:30.989Z,9.48
2018-09-09T11:08:59.280Z,6.10
2018-09-09T11:11:27.648Z,6.80
2018-09-09T11:13:56.645Z,8.13
2018-09-09T11:16:24.951Z,8.35
2018-09-09T11:18:53.248Z,7.95
2018-09-09T11:21:21.577Z,8.73
2018-09-09T11:23:50.342Z,10.00
2018-09-09T11:26:18.643Z,10.63
2018-09-09T11:28:46.937Z,9.45
2018-09-09T11:31:15.241Z,8.05
2018-09-09T11:33:43.601Z,7.17
2018-09-09T11:36:12.242Z,7.33
2018-09-09T11:38:40.512Z,7.17
2018-09-09T11:41:08.805Z,6.75
2018-09-09T11:43:37.116Z,6.58
2018-09-09T11:46:05.563Z,5.83
2018-09-09T11:48:33.848Z,7.60
2018-09-09T11:51:02.255Z,6.22
2018-09-09T11:53:30.553Z,6.05
2018-09-09T11:55:58.933Z,6.40
2018-09-09T11:58:27.451Z,4.12
2018-09-09T12:00:55.748Z,4.67
2018-09-09T12:03:24.086Z,5.12
2018-09-09T12:05:52.372Z,5.25
2018-09-09T12:08:20.692Z,6.80
2018-09-09T12:10:48.990Z,5.75
2018-09-09T12:13:17.283Z,3.87
2018-09-09T12:15:45.623Z,3.52
2018-09-09T12:18:13.933Z,5.22
2018-09-09T12:20:43.207Z,3.22
2018-09-09T12:23:11.517Z,4.80
2018-09-09T12:25:39.813Z,5.75
2018-09-09T12:28:08.084Z,6.20
2018-09-09T12:30:36.370Z,4.67
2018-09-09T12:33:04.632Z,4.10
2018-09-09T12:35:32.932Z,5.05
2018-09-09T12:38:01.188Z,5.85
2018-09-09T12:40:29.427Z,4.10
2018-09-09T12:43:02.959Z,3.77
2018-09-09T12:45:36.796Z,3.80
2018-09-09T12:48:10.625Z,5.20
2018-09-09T12:50:38.961Z,4.72
2018-09-09T12:53:07.633Z,4.00
2018-09-09T12:55:35.948Z,3.90
2018-09-09T12:58:04.471Z,4.22
2018-09-09T13:00:32.821Z,3.92
2018-09-09T13:03:01.065Z,4.75
2018-09-09T13:05:29.318Z,4.03
2018-09-09T13:07:57.599Z,4.97
2018-09-09T13:10:26.424Z,5.67
2018-09-09T13:13:00.263Z,6.35
2018-09-09T13:15:28.545Z,3.85
2018-09-09T13:17:56.949Z,3.80
2018-09-09T13:20:25.251Z,5.03
2018-09-09T13:22:54.320Z,4.20
2018-09-09T13:25:22.904Z,3.12
2018-09-09T13:27:51.220Z,4.65
2018-09-09T13:30:20.908Z,3.67
2018-09-09T13:32:49.239Z,3.62
2018-09-09T13:35:17.517Z,3.92
2018-09-09T13:37:45.832Z,3.70
2018-09-09T13:40:14.141Z,3.65
2018-09-09T13:42:42.848Z,4.55
2018-09-09T13:45:11.125Z,3.72
2018-09-09T13:47:39.411Z,4.28
2018-09-09T13:50:07.699Z,3.60
2018-09-09T13:52:35.957Z,2.90
2018-09-09T13:55:04.320Z,2.50
2018-09-09T13:57:32.567Z,2.90
2018-09-09T14:00:00.980Z,4.65
2018-09-09T14:02:29.283Z,3.85
2018-09-09T14:04:57.552Z,3.05
2018-09-09T14:07:25.861Z,2.75
2018-09-09T14:09:54.154Z,3.12
2018-09-09T14:12:22.472Z,5.35
2018-09-09T14:14:50.800Z,3.17
2018-09-09T14:17:19.144Z,4.67
2018-09-09T14:19:47.459Z,3.17
2018-09-09T14:22:16.450Z,4.10
2018-09-09T14:24:44.725Z,3.72
2018-09-09T14:27:13.820Z,4.45
2018-09-09T14:29:42.099Z,3.35
2018-09-09T14:32:10.392Z,3.40
2018-09-09T14:34:38.648Z,3.10
2018-09-09T14:37:06.944Z,4.62
2018-09-09T14:39:35.222Z,3.12
2018-09-09T14:42:03.712Z,3.45
2018-09-09T14:44:32.022Z,2.85
2018-09-09T14:47:00.314Z,3.77
2018-09-09T14:49:28.608Z,2.85
2018-09-09T14:51:56.886Z,4.22
2018-09-09T14:54:25.216Z,3.55
2018-09-09T14:56:53.578Z,2.52
2018-09-09T14:59:21.877Z,3.33
2018-09-09T15:01:51.402Z,2.52
2018-09-09T15:04:19.759Z,3.05
2018-09-09T15:06:48.041Z,3.95
2018-09-09T15:09:16.963Z,3.12
2018-09-09T15:11:45.287Z,4.87
2018-09-09T15:14:14.976Z,4.35
2018-09-09T15:16:43.428Z,3.87
2018-09-09T15:19:12.145Z,5.50
2018-09-09T15:21:40.448Z,3.87
2018-09-09T15:24:08.707Z,4.22
2018-09-09T15:26:37.009Z,4.67
2018-09-09T15:29:05.584Z,2.87
2018-09-09T15:31:34.788Z,3.15
2018-09-09T15:34:03.080Z,3.90
2018-09-09T15:36:32.417Z,2.58
2018-09-09T15:39:01.181Z,3.35
2018-09-09T15:41:29.546Z,4.35
2018-09-09T15:43:57.820Z,3.95
2018-09-09T15:46:26.167Z,4.35
2018-09-09T15:48:54.566Z,3.10
2018-09-09T15:51:23.540Z,3.55
2018-09-09T15:53:51.861Z,3.65
2018-09-09T15:56:20.170Z,2.80
2018-09-09T15:58:48.493Z,3.55
2018-09-09T16:01:16.804Z,2.85
2018-09-09T16:03:45.075Z,4.00
2018-09-09T16:06:14.295Z,4.08
2018-09-09T16:08:42.579Z,2.42
2018-09-09T16:11:10.959Z,2.40
2018-09-09T16:13:39.272Z,5.25
2018-09-09T16:16:07.621Z,3.65
2018-09-09T16:18:36.259Z,3.85
2018-09-09T16:21:04.521Z,4.12
2018-09-09T16:23:32.903Z,2.50
2018-09-09T16:26:01.165Z,3.35
2018-09-09T16:28:29.458Z,3.25
2018-09-09T16:30:59.206Z,2.45
2018-09-09T16:33:27.509Z,3.92
2018-09-09T16:35:55.840Z,4.12
2018-09-09T16:38:24.165Z,2.75
2018-09-09T16:40:52.556Z,1.82
2018-09-09T16:43:20.909Z,3.47
2018-09-09T16:45:49.221Z,3.10
2018-09-09T16:48:17.564Z,3.15
2018-09-09T16:50:46.512Z,2.45
2018-09-09T16:53:14.792Z,2.55
2018-09-09T16:55:43.079Z,3.00
2018-09-09T16:58:12.169Z,3.85
2018-09-09T17:00:40.536Z,2.70
2018-09-09T17:03:09.164Z,3.47
2018-09-09T17:05:37.469Z,2.75
2018-09-09T17:08:05.792Z,2.33
2018-09-09T17:10:34.096Z,4.37
2018-09-09T17:13:02.399Z,4.03
2018-09-09T17:15:30.687Z,2.72
2018-09-09T17:17:58.999Z,3.55
2018-09-09T17:20:27.281Z,3.12
2018-09-09T17:22:56.333Z,3.27
2018-09-09T17:25:25.310Z,1.70
2018-09-09T17:27:53.721Z,4.25
2018-09-09T17:30:22.074Z,2.33
2018-09-09T17:32:51.969Z,3.47
2018-09-09T17:35:20.287Z,3.45
2018-09-09T17:37:49.522Z,6.87
2018-09-09T17:40:17.885Z,5.78
2018-09-09T17:42:46.468Z,4.95
2018-09-09T17:45:14.747Z,5.13
2018-09-09T17:47:43.088Z,4.17
2018-09-09T17:50:11.379Z,4.50
2018-09-09T17:52:40.361Z,3.55
2018-09-09T17:55:08.688Z,3.17
2018-09-09T17:57:37.419Z,3.55
2018-09-09T18:00:09.219Z,2.80
2018-09-09T18:02:37.560Z,4.35
2018-09-09T18:05:05.911Z,4.58
2018-09-09T18:07:34.457Z,4.42
2018-09-09T18:10:02.760Z,3.85
2018-09-09T18:12:31.229Z,2.37
2018-09-09T18:15:00.508Z,5.10
2018-09-09T18:17:29.015Z,3.22
2018-09-09T18:19:57.283Z,3.05
2018-09-09T18:22:26.014Z,4.03
2018-09-09T18:24:54.679Z,6.20
2018-09-09T18:27:23.009Z,2.40
2018-09-09T18:29:51.413Z,3.90
2018-09-09T18:32:19.716Z,4.33
2018-09-09T18:34:48.371Z,3.40
2018-09-09T18:37:16.697Z,4.47
2018-09-09T18:39:45.111Z,5.67
2018-09-09T18:42:15.771Z,6.92
2018-09-09T18:44:44.487Z,5.35
2018-09-09T18:47:12.809Z,4.72
2018-09-09T18:49:41.165Z,5.47
2018-09-09T18:52:09.696Z,6.28
2018-09-09T18:54:38.012Z,5.85
2018-09-09T18:57:07.188Z,6.35
2018-09-09T18:59:35.792Z,4.25
2018-09-09T19:02:04.142Z,7.12
2018-09-09T19:04:32.478Z,7.47
2018-09-09T19:07:00.846Z,5.92
2018-09-09T19:09:29.177Z,5.47
2018-09-09T19:11:57.532Z,3.90
2018-09-09T19:14:26.193Z,4.25
2018-09-09T19:16:54.577Z,6.83
2018-09-09T19:19:22.991Z,7.62
2018-09-09T19:21:53.063Z,7.22
2018-09-09T19:24:22.098Z,7.58
2018-09-09T19:26:51.680Z,6.17
2018-09-09T19:29:21.434Z,5.95
2018-09-09T19:31:49.760Z,4.83
2018-09-09T19:34:18.534Z,6.28
2018-09-09T19:36:48.223Z,4.78
2018-09-09T19:39:16.503Z,7.85
2018-09-09T19:41:44.861Z,6.27
2018-09-09T19:44:13.791Z,6.30
2018-09-09T19:46:44.059Z,6.60
2018-09-09T19:49:14.476Z,6.70
2018-09-09T19:51:42.792Z,5.25
2018-09-09T19:54:11.241Z,6.90
2018-09-09T19:56:39.553Z,5.20
2018-09-09T19:59:07.872Z,4.42
2018-09-09T20:01:36.176Z,4.65
2018-09-09T20:04:05.717Z,3.80
2018-09-09T20:06:34.030Z,3.05
2018-09-09T20:09:02.372Z,4.75
2018-09-09T20:11:31.064Z,3.62
2018-09-09T20:13:59.373Z,6.95
2018-09-09T20:16:27.735Z,4.80
2018-09-09T20:19:06.116Z,4.17
2018-09-09T20:21:34.469Z,3.95
2018-09-09T20:24:02.768Z,6.20
2018-09-09T20:26:31.733Z,6.90
2018-09-09T20:29:07.355Z,5.45
2018-09-09T20:31:35.697Z,4.00
2018-09-09T20:34:04.578Z,5.65
2018-09-09T20:36:33.324Z,3.85
2018-09-09T20:39:01.749Z,4.45
2018-09-09T20:41:30.073Z,5.65
2018-09-09T20:43:58.644Z,4.65
2018-09-09T20:46:26.957Z,3.50
2018-09-09T20:48:55.251Z,4.03
2018-09-09T20:51:23.548Z,5.67
2018-09-09T20:53:51.781Z,4.10
2018-09-09T20:56:20.038Z,3.67
2018-09-09T20:58:49.193Z,6.12
2018-09-09T21:01:17.506Z,4.70
2018-09-09T21:03:45.769Z,3.50
2018-09-09T21:06:15.001Z,3.20
2018-09-09T21:08:43.269Z,5.15
2018-09-09T21:11:11.625Z,3.12
2018-09-09T21:13:40.427Z,2.97
2018-09-09T21:16:08.726Z,2.95
2018-09-09T21:18:37.188Z,3.40
2018-09-09T21:21:05.591Z,4.80
2018-09-09T21:23:33.843Z,4.25
2018-09-09T21:26:02.175Z,3.35
2018-09-09T21:28:30.448Z,3.10
2018-09-09T21:30:58.699Z,5.72
2018-09-09T21:33:26.943Z,2.92
2018-09-09T21:35:55.202Z,3.87
2018-09-09T21:38:23.447Z,4.65
2018-09-09T21:40:51.712Z,3.17
2018-09-09T21:43:20.708Z,3.83
2018-09-09T21:45:48.955Z,3.13
2018-09-09T21:48:17.185Z,2.98
2018-09-09T21:50:45.455Z,4.60
2018-09-09T21:53:13.720Z,3.72
2018-09-09T21:55:41.949Z,2.97
2018-09-09T21:58:10.243Z,3.72
2018-09-09T22:00:43.860Z,5.55
2018-09-09T22:03:12.121Z,4.67
2018-09-09T22:05:40.431Z,2.40
2018-09-09T22:08:09.605Z,3.00
2018-09-09T22:10:37.856Z,2.75
2018-09-09T22:13:06.079Z,5.10
2018-09-09T22:15:34.285Z,3.85
2018-09-09T22:18:02.496Z,3.45
2018-09-09T22:20:30.719Z,3.50
2018-09-09T22:22:58.924Z,4.37
2018-09-09T22:25:27.184Z,5.75
2018-09-09T22:27:55.407Z,2.20
2018-09-09T22:30:23.637Z,5.47
2018-09-09T22:32:51.890Z,2.60
2018-09-09T22:35:20.136Z,3.60
2018-09-09T22:37:48.345Z,3.12
2018-09-09T22:40:16.836Z,3.05
2018-09-09T22:42:45.775Z,3.70
2018-09-09T22:45:14.043Z,2.87
2018-09-09T22:47:42.331Z,3.60
2018-09-09T22:50:10.555Z,4.00
2018-09-09T22:52:38.791Z,3.30
2018-09-09T22:55:07.071Z,4.75
2018-09-09T22:57:35.519Z,3.95
2018-09-09T23:00:03.993Z,3.10
2018-09-09T23:02:32.247Z,3.47
2018-09-09T23:05:00.477Z,3.20
2018-09-09T23:07:28.700Z,4.83
2018-09-09T23:09:56.964Z,2.83
2018-09-09T23:12:25.200Z,3.60
2018-09-09T23:14:53.436Z,3.77
2018-09-09T23:17:21.651Z,3.50
2018-09-09T23:19:50.275Z,4.00
2018-09-09T23:22:18.512Z,4.07
2018-09-09T23:24:46.739Z,2.98
2018-09-09T23:27:14.995Z,3.92
2018-09-09T23:29:43.249Z,3.10
2018-09-09T23:32:11.567Z,3.90
2018-09-09T23:34:39.806Z,3.95
2018-09-09T23:37:08.017Z,2.90
2018-09-09T23:39:36.260Z,2.75
2018-09-09T23:42:04.460Z,4.25
2018-09-09T23:44:32.697Z,2.85
2018-09-09T23:47:00.912Z,2.60
2018-09-09T23:49:29.120Z,4.10
2018-09-09T23:51:57.331Z,3.10
2018-09-09T23:54:26.497Z,2.58
2018-09-09T23:56:54.712Z,5.75
2018-09-09T23:59:22.887Z,2.98
